createdAt,value
2018-10-12T00:01:16.876Z,98696.88
2018-10-12T00:03:46.601Z,98697.69
2018-10-12T00:06:15.873Z,98701.45
2018-10-12T00:08:45.799Z,98696.88
2018-10-12T00:11:16.201Z,98700.36
2018-10-12T00:13:46.585Z,98699.55
2018-10-12T00:16:16.655Z,98680.38
2018-10-12T00:18:45.867Z,98698.48
2018-10-12T00:21:15.613Z,98705.19
2018-10-12T00:23:44.850Z,98707.33
2018-10-12T00:26:14.650Z,98714.27
2018-10-12T00:28:43.870Z,98708.43
2018-10-12T00:31:13.922Z,98716.41
2018-10-12T00:33:43.897Z,98711.89
2018-10-12T00:36:13.810Z,98716.69
2018-10-12T00:38:43.603Z,98719.37
2018-10-12T00:41:12.883Z,98719.64
2018-10-12T00:43:42.810Z,98712.16
2018-10-12T00:46:12.186Z,98713.23
2018-10-12T00:48:41.657Z,98712.95
2018-10-12T00:51:10.806Z,98710.55
2018-10-12T00:53:40.624Z,98708.94
2018-10-12T00:56:09.831Z,98720.45
2018-10-12T00:58:39.696Z,98719.64
2018-10-12T01:01:08.927Z,98719.38
2018-10-12T01:03:38.762Z,98718.58
2018-10-12T01:06:08.050Z,98726.08
2018-10-12T01:08:37.746Z,98734.08
2018-10-12T01:11:06.921Z,98739.16
2018-10-12T01:13:36.637Z,98738.11
2018-10-12T01:16:05.837Z,98738.37
2018-10-12T01:18:35.171Z,98744.80
2018-10-12T01:21:03.817Z,98748.56
2018-10-12T01:23:33.220Z,98756.57
2018-10-12T01:26:01.862Z,98745.34
2018-10-12T01:28:31.734Z,98749.66
2018-10-12T01:31:01.834Z,98756.06
2018-10-12T01:33:31.625Z,98758.20
2018-10-12T01:35:59.866Z,98765.69
2018-10-12T01:38:29.354Z,98757.69
2018-10-12T01:40:58.787Z,98766.77
2018-10-12T01:43:27.853Z,98754.47
2018-10-12T01:46:30.590Z,98755.00
2018-10-12T01:48:57.804Z,98757.09
2018-10-12T01:51:25.755Z,98756.34
2018-10-12T01:53:53.581Z,98763.79
2018-10-12T01:56:21.266Z,98768.64
2018-10-12T01:58:48.984Z,98777.47
2018-10-12T02:01:16.799Z,98780.95
2018-10-12T02:03:45.054Z,98776.69
2018-10-12T02:06:12.413Z,98782.31
2018-10-12T02:08:40.206Z,98776.13
2018-10-12T02:11:08.047Z,98788.44
2018-10-12T02:13:35.414Z,98788.98
2018-10-12T02:16:03.174Z,98784.98
2018-10-12T02:18:31.224Z,98782.58
2018-10-12T02:20:59.280Z,98787.94
2018-10-12T02:23:27.062Z,98794.34
2018-10-12T02:25:54.877Z,98800.50
2018-10-12T02:28:22.714Z,98803.43
2018-10-12T02:30:50.539Z,98808.53
2018-10-12T02:33:18.606Z,98801.59
2018-10-12T02:35:46.301Z,98809.87
2018-10-12T02:38:14.218Z,98807.48
2018-10-12T02:40:41.942Z,98819.50
2018-10-12T02:43:09.689Z,98823.53
2018-10-12T02:45:37.710Z,98817.14
2018-10-12T02:48:05.883Z,98805.91
2018-10-12T02:50:33.699Z,98827.28
2018-10-12T02:53:01.961Z,98787.51
2018-10-12T02:55:29.393Z,98835.30
2018-10-12T02:57:57.354Z,98840.67
2018-10-12T03:00:25.179Z,98847.89
2018-10-12T03:02:52.967Z,98847.87
2018-10-12T03:05:20.498Z,98852.42
2018-10-12T03:07:48.386Z,98853.23
2018-10-12T03:10:16.214Z,98857.50
2018-10-12T03:12:43.858Z,98860.45
2018-10-12T03:15:11.839Z,98858.05
2018-10-12T03:17:39.696Z,98863.95
2018-10-12T03:20:07.490Z,98853.51
2018-10-12T03:22:35.327Z,98870.09
2018-10-12T03:25:03.050Z,98879.72
2018-10-12T03:27:35.761Z,98876.25
2018-10-12T03:30:03.787Z,98876.80
2018-10-12T03:32:33.886Z,98879.72
2018-10-12T03:35:03.652Z,98873.84
2018-10-12T03:37:32.998Z,98808.44
2018-10-12T03:40:02.646Z,98869.05
2018-10-12T03:42:33.791Z,98881.60
2018-10-12T03:45:03.826Z,98887.23
2018-10-12T03:47:33.794Z,98880.80
2018-10-12T03:52:43.768Z,98896.06
2018-10-12T03:55:11.623Z,98888.56
2018-10-12T03:57:39.597Z,98890.70
2018-10-12T04:00:07.460Z,98892.31
2018-10-12T04:02:35.229Z,98898.48
2018-10-12T04:05:03.038Z,98901.16
2018-10-12T04:07:32.758Z,98899.81
2018-10-12T04:10:02.036Z,98901.17
2018-10-12T04:12:31.681Z,98886.75
2018-10-12T04:15:00.773Z,98910.78
2018-10-12T04:17:29.945Z,98912.65
2018-10-12T04:19:59.721Z,98916.66
2018-10-12T04:24:48.828Z,98916.41
2018-10-12T04:27:18.849Z,98927.36
2018-10-12T04:29:48.732Z,98932.73
2018-10-12T04:32:17.907Z,98940.22
2018-10-12T04:34:47.905Z,98933.53
2018-10-12T04:37:17.827Z,98932.20
2018-10-12T04:39:55.843Z,98938.31
2018-10-12T04:42:25.822Z,98934.07
2018-10-12T04:44:55.294Z,98934.87
2018-10-12T04:47:26.967Z,98946.91
2018-10-12T04:49:56.843Z,98941.55
2018-10-12T04:52:27.849Z,98945.03
2018-10-12T04:54:57.711Z,98945.83
2018-10-12T04:57:26.876Z,98953.84
2018-10-12T04:59:56.801Z,98955.72
2018-10-12T05:02:25.993Z,98975.53
2018-10-12T05:04:55.799Z,98972.34
2018-10-12T05:07:25.783Z,98974.98
2018-10-12T05:09:55.182Z,98979.00
2018-10-12T05:14:22.621Z,98984.07
2018-10-12T05:16:51.797Z,98983.56
2018-10-12T05:19:21.634Z,98983.27
2018-10-12T05:21:50.931Z,98956.56
2018-10-12T05:25:58.877Z,98994.52
2018-10-12T05:28:29.855Z,98999.08
2018-10-12T05:31:00.618Z,98997.98
2018-10-12T05:33:29.782Z,98928.98
2018-10-12T05:37:11.207Z,99011.10
2018-10-12T05:39:40.691Z,99014.30
2018-10-12T05:42:09.893Z,99024.22
2018-10-12T05:46:28.860Z,99026.62
2018-10-12T05:49:16.810Z,99022.59
2018-10-12T05:53:33.938Z,98957.57
2018-10-12T05:56:02.850Z,99036.80
2018-10-12T05:58:32.850Z,99030.89
2018-10-12T06:01:01.847Z,99039.73
2018-10-12T06:03:31.537Z,99036.80
2018-10-12T06:06:00.855Z,99045.08
2018-10-12T06:08:30.641Z,99043.45
2018-10-12T06:11:03.786Z,99054.16
2018-10-12T06:13:33.762Z,99057.13
2018-10-12T06:16:02.961Z,99051.77
2018-10-12T06:18:31.806Z,99062.46
2018-10-12T06:21:01.856Z,99062.18
2018-10-12T06:23:31.687Z,99063.26
2018-10-12T06:26:01.213Z,99059.77
2018-10-12T06:28:30.837Z,99063.26
2018-10-12T06:31:00.790Z,99072.88
2018-10-12T06:33:30.641Z,99075.03
2018-10-12T06:36:00.754Z,99081.72
2018-10-12T06:38:30.869Z,99094.57
2018-10-12T06:41:00.766Z,99088.40
2018-10-12T06:43:30.319Z,99092.94
2018-10-12T06:45:59.939Z,99094.28
2018-10-12T06:48:28.940Z,99094.28
2018-10-12T06:50:58.744Z,99099.38
2018-10-12T06:53:28.222Z,99105.78
2018-10-12T06:55:58.922Z,99107.39
2018-10-12T06:58:28.969Z,99110.63
2018-10-12T07:00:59.998Z,99101.78
2018-10-12T07:03:29.971Z,99118.36
2018-10-12T07:08:17.914Z,99115.17
2018-10-12T07:10:47.922Z,99133.89
2018-10-12T07:13:17.978Z,99136.86
2018-10-12T07:15:49.923Z,99143.28
2018-10-12T07:18:19.952Z,99136.59
2018-10-12T07:20:49.938Z,99143.80
2018-10-12T07:23:19.946Z,99139.78
2018-10-12T07:25:49.943Z,99147.55
2018-10-12T07:28:19.973Z,99151.85
2018-10-12T07:30:50.014Z,99150.02
2018-10-12T07:33:18.984Z,99146.80
2018-10-12T07:35:48.962Z,99150.28
2018-10-12T07:38:18.983Z,99148.41
2018-10-12T07:40:49.023Z,99136.34
2018-10-12T07:43:19.023Z,99151.09
2018-10-12T07:45:48.984Z,99152.68
2018-10-12T07:48:19.166Z,99156.95
2018-10-12T07:50:49.862Z,99148.39
2018-10-12T07:53:20.069Z,99165.80
2018-10-12T07:57:09.702Z,99159.37
2018-10-12T07:59:38.048Z,99166.61
2018-10-12T08:02:07.002Z,99149.18
2018-10-12T08:04:37.010Z,99133.66
2018-10-12T08:07:07.007Z,99169.01
2018-10-12T08:09:37.061Z,99173.83
2018-10-12T08:12:07.018Z,99166.84
2018-10-12T08:14:37.006Z,99165.52
2018-10-12T08:18:31.939Z,99163.09
2018-10-12T08:21:00.622Z,99164.98
2018-10-12T08:23:28.795Z,99165.50
2018-10-12T08:25:56.607Z,99164.16
2018-10-12T08:28:26.205Z,99162.28
2018-10-12T08:30:56.053Z,99162.57
2018-10-12T08:33:26.201Z,99163.10
2018-10-12T08:35:56.019Z,99168.45
2018-10-12T08:38:26.046Z,99167.37
2018-10-12T08:40:56.043Z,99163.88
2018-10-12T08:43:26.038Z,99101.01
2018-10-12T08:45:56.021Z,99158.55
2018-10-12T08:48:25.997Z,99161.47
2018-10-12T08:50:56.026Z,99155.05
2018-10-12T08:53:26.034Z,99159.61
2018-10-12T08:55:56.039Z,99159.61
2018-10-12T08:58:26.990Z,99170.59
2018-10-12T09:00:56.981Z,99165.23
2018-10-12T09:03:26.988Z,99158.25
2018-10-12T09:05:56.995Z,99176.20
2018-10-12T09:08:26.994Z,99173.53
2018-10-12T09:10:56.978Z,99177.02
2018-10-12T09:13:26.975Z,99182.91
2018-10-12T09:15:57.023Z,99179.44
2018-10-12T09:18:26.975Z,99174.60
2018-10-12T09:20:56.968Z,99180.48
2018-10-12T09:26:05.776Z,99179.95
2018-10-12T09:28:33.641Z,99184.77
2018-10-12T09:31:01.483Z,99180.49
2018-10-12T09:33:29.318Z,99172.45
2018-10-12T09:35:57.191Z,99149.98
2018-10-12T09:38:25.990Z,99181.28
2018-10-12T09:40:55.993Z,99177.52
2018-10-12T09:43:25.989Z,99181.80
2018-10-12T09:45:55.947Z,99188.23
2018-10-12T09:48:25.945Z,99182.89
2018-10-12T09:50:55.992Z,99183.97
2018-10-12T09:56:08.870Z,99177.32
2018-10-12T09:58:36.708Z,99181.86
2018-10-12T10:01:10.642Z,99188.53
2018-10-12T10:03:44.502Z,99189.88
2018-10-12T10:06:12.473Z,99189.63
2018-10-12T10:08:40.255Z,99189.89
2018-10-12T10:11:08.550Z,99185.06
2018-10-12T10:13:36.326Z,99182.11
2018-10-12T10:16:04.217Z,99178.62
2018-10-12T10:18:32.015Z,99181.31
2018-10-12T10:20:59.770Z,99175.41
2018-10-12T10:23:27.601Z,99173.52
2018-10-12T10:25:55.436Z,99174.33
2018-10-12T10:28:23.209Z,99175.41
2018-10-12T10:30:50.807Z,99174.62
2018-10-12T10:33:18.929Z,99175.67
2018-10-12T10:35:46.751Z,99173.52
2018-10-12T10:38:16.890Z,99013.23
2018-10-12T10:40:45.869Z,99096.73
2018-10-12T10:43:14.880Z,99175.12
2018-10-12T10:45:44.845Z,99168.99
2018-10-12T10:48:14.672Z,99168.73
2018-10-12T10:50:43.898Z,99167.60
2018-10-12T10:53:12.963Z,99161.73
2018-10-12T10:55:41.888Z,99156.91
2018-10-12T10:58:11.782Z,99158.25
2018-10-12T11:03:03.957Z,99152.38
2018-10-12T11:05:33.991Z,99156.40
2018-10-12T11:08:03.958Z,99143.55
2018-10-12T11:10:33.967Z,99155.02
2018-10-12T11:13:04.043Z,99154.77
2018-10-12T11:15:33.974Z,99133.88
2018-10-12T11:18:03.885Z,99138.16
2018-10-12T11:20:33.927Z,99135.20
2018-10-12T11:23:03.939Z,99134.64
2018-10-12T11:25:33.994Z,99133.30
2018-10-12T11:28:03.951Z,99130.88
2018-10-12T11:30:33.954Z,99131.11
2018-10-12T11:33:54.942Z,99129.41
2018-10-12T11:36:24.921Z,99124.31
2018-10-12T11:38:54.989Z,99123.52
2018-10-12T11:41:24.967Z,99122.95
2018-10-12T11:43:54.951Z,99119.22
2018-10-12T11:46:24.938Z,99112.72
2018-10-12T11:48:55.643Z,99115.41
2018-10-12T11:51:25.030Z,99107.13
2018-10-12T11:53:54.922Z,99103.88
2018-10-12T11:56:24.899Z,99103.09
2018-10-12T11:58:53.973Z,99101.46
2018-10-12T12:01:24.071Z,99096.33
2018-10-12T12:04:20.570Z,99096.58
2018-10-12T12:06:49.950Z,99092.52
2018-10-12T12:09:19.985Z,99089.62
2018-10-12T12:11:49.993Z,99088.77
2018-10-12T12:14:20.008Z,99076.62
2018-10-12T12:16:50.480Z,99086.26
2018-10-12T12:19:20.983Z,99092.11
2018-10-12T12:21:50.985Z,99093.39
2018-10-12T12:25:32.973Z,99084.26
2018-10-12T12:28:02.958Z,99094.41
2018-10-12T12:30:33.501Z,99089.83
2018-10-12T12:33:02.983Z,99084.81
2018-10-12T12:35:33.296Z,99073.14
2018-10-12T12:38:03.029Z,99090.47
2018-10-12T12:40:32.970Z,99082.43
2018-10-12T12:43:02.930Z,98973.95
2018-10-12T12:45:32.873Z,99080.56
2018-10-12T12:48:03.129Z,99080.53
2018-10-12T12:50:32.874Z,99080.01
2018-10-12T12:53:01.890Z,99080.01
2018-10-12T12:55:30.938Z,99085.06
2018-10-12T12:58:00.950Z,99084.72
2018-10-12T13:00:34.012Z,99086.36
2018-10-12T13:03:03.930Z,99086.57
2018-10-12T13:05:33.958Z,99086.47
2018-10-12T13:08:03.953Z,99087.28
2018-10-12T13:10:33.965Z,99054.17
2018-10-12T13:13:03.995Z,99078.22
2018-10-12T13:15:35.030Z,99080.42
2018-10-12T13:18:04.965Z,99058.49
2018-10-12T13:21:52.749Z,99086.19
2018-10-12T13:24:20.803Z,99086.17
2018-10-12T13:26:48.655Z,99084.23
2018-10-12T13:29:15.778Z,99079.45
2018-10-12T13:31:43.634Z,99080.37
2018-10-12T13:34:11.423Z,99086.66
2018-10-12T13:36:39.227Z,99063.64
2018-10-12T13:39:10.314Z,99094.41
2018-10-12T13:41:38.439Z,99092.37
2018-10-12T13:44:06.543Z,99096.57
2018-10-12T13:46:34.624Z,99091.70
2018-10-12T13:49:02.349Z,99088.74
2018-10-12T13:51:30.223Z,99093.05
2018-10-12T13:53:57.970Z,99097.58
2018-10-12T13:56:25.907Z,99086.87
2018-10-12T13:58:54.362Z,99101.13
2018-10-12T14:01:22.169Z,99092.74
2018-10-12T14:03:50.050Z,99090.10
2018-10-12T14:06:17.978Z,99096.12
2018-10-12T14:08:45.890Z,99096.02
2018-10-12T14:11:13.777Z,99089.83
2018-10-12T14:13:41.819Z,99092.43
2018-10-12T14:16:09.702Z,99088.69
2018-10-12T14:18:37.655Z,99083.56
2018-10-12T14:21:05.616Z,99084.38
2018-10-12T14:24:02.759Z,99069.92
2018-10-12T14:26:31.968Z,99075.48
2018-10-12T14:29:00.809Z,99076.27
2018-10-12T14:31:30.734Z,99075.20
2018-10-12T14:34:00.807Z,99078.91
2018-10-12T14:36:30.838Z,99082.81
2018-10-12T14:39:00.751Z,99077.11
2018-10-12T14:41:30.635Z,99074.52
2018-10-12T14:45:18.550Z,99067.60
2018-10-12T14:47:48.961Z,99076.73
2018-10-12T14:50:18.653Z,99072.16
2018-10-12T14:52:46.951Z,99075.42
2018-10-12T14:55:16.887Z,99080.55
2018-10-12T14:57:46.655Z,99076.73
2018-10-12T15:00:15.808Z,99077.13
2018-10-12T15:02:45.853Z,99079.17
2018-10-12T15:05:15.645Z,99085.55
2018-10-12T15:07:44.874Z,99059.61
2018-10-12T15:10:14.727Z,99087.93
2018-10-12T15:12:43.971Z,99091.73
2018-10-12T15:15:17.900Z,99079.37
2018-10-12T15:17:48.761Z,99087.88
2018-10-12T15:20:17.607Z,99083.81
2018-10-12T15:24:27.670Z,99087.28
2018-10-12T15:26:55.511Z,99088.34
2018-10-12T15:29:23.411Z,99088.03
2018-10-12T15:31:51.207Z,99091.12
2018-10-12T15:34:18.857Z,99088.97
2018-10-12T15:36:47.833Z,99092.98
2018-10-12T15:39:15.694Z,99090.92
2018-10-12T15:41:43.589Z,99087.58
2018-10-12T15:44:12.839Z,99091.66
2018-10-12T15:46:42.815Z,99071.83
2018-10-12T15:49:12.630Z,99059.53
2018-10-12T15:51:41.925Z,99085.18
2018-10-12T15:54:11.614Z,99092.39
2018-10-12T15:56:40.840Z,99090.30
2018-10-12T15:59:10.642Z,99089.83
2018-10-12T16:01:39.987Z,99063.94
2018-10-12T16:04:09.926Z,99071.16
2018-10-12T16:06:40.803Z,99087.63
2018-10-12T16:09:10.607Z,99083.05
2018-10-12T16:11:39.793Z,99090.55
2018-10-12T16:14:09.197Z,99093.45
2018-10-12T16:16:37.967Z,99095.33
2018-10-12T16:19:07.899Z,99096.72
2018-10-12T16:21:37.673Z,99096.27
2018-10-12T16:24:12.007Z,99092.02
2018-10-12T16:26:41.827Z,99099.58
2018-10-12T16:29:11.137Z,99090.71
2018-10-12T16:31:40.802Z,99097.15
2018-10-12T16:34:10.067Z,99095.29
2018-10-12T16:37:27.789Z,99092.63
2018-10-12T16:39:55.834Z,99095.84
2018-10-12T16:42:23.736Z,99097.42
2018-10-12T16:44:51.583Z,99102.78
2018-10-12T16:47:19.754Z,99109.30
2018-10-12T16:49:47.587Z,99114.19
2018-10-12T16:52:15.301Z,99115.30
2018-10-12T16:54:43.035Z,99109.95
2018-10-12T16:57:11.306Z,99112.11
2018-10-12T16:59:39.214Z,99119.33
2018-10-12T17:02:06.970Z,99121.20
2018-10-12T17:04:34.781Z,99110.73
2018-10-12T17:07:04.160Z,99122.88
2018-10-12T17:09:32.559Z,99125.55
2018-10-12T17:12:00.801Z,99121.55
2018-10-12T17:14:29.937Z,99096.62
2018-10-12T17:16:59.579Z,99129.56
2018-10-12T17:19:28.866Z,99134.41
2018-10-12T17:21:58.185Z,99141.41
2018-10-12T17:24:27.613Z,99140.59
2018-10-12T17:26:55.833Z,99137.93
2018-10-12T17:29:25.154Z,99117.86
2018-10-12T17:31:54.714Z,99142.77
2018-10-12T17:34:23.844Z,99146.50
2018-10-12T17:36:53.090Z,99146.79
2018-10-12T17:39:21.834Z,99146.52
2018-10-12T17:41:49.790Z,99148.92
2018-10-12T17:44:18.991Z,99150.53
2018-10-12T17:46:48.911Z,99128.03
2018-10-12T17:49:18.628Z,99159.06
2018-10-12T17:51:46.882Z,99167.36
2018-10-12T17:54:16.042Z,99165.48
2018-10-12T17:56:45.662Z,99166.02
2018-10-12T17:59:13.739Z,99162.80
2018-10-12T18:01:41.846Z,99170.27
2018-10-12T18:04:10.975Z,99168.41
2018-10-12T18:06:40.599Z,99158.77
2018-10-12T18:09:08.795Z,99178.28
2018-10-12T18:11:38.763Z,99179.59
2018-10-12T18:14:08.884Z,99182.79
2018-10-12T18:16:38.748Z,99191.04
2018-10-12T18:19:08.867Z,99190.22
2018-10-12T18:21:38.626Z,99193.71
2018-10-12T18:24:07.895Z,99190.97
2018-10-12T18:26:37.751Z,99198.28
2018-10-12T18:29:07.027Z,99195.86
2018-10-12T18:31:36.870Z,99124.28
2018-10-12T18:34:06.642Z,99200.66
2018-10-12T18:36:35.971Z,99198.95
2018-10-12T18:39:06.870Z,99198.44
2018-10-12T18:41:36.640Z,99191.23
2018-10-12T18:44:05.819Z,99191.39
2018-10-12T18:49:17.854Z,99176.59
2018-10-12T18:51:46.368Z,99186.81
2018-10-12T18:54:14.721Z,99188.62
2018-10-12T18:56:43.283Z,99185.70
2018-10-12T19:01:39.954Z,99197.90
2018-10-12T19:04:07.919Z,99199.42
2018-10-12T19:06:36.033Z,99202.36
2018-10-12T19:09:08.752Z,99204.27
2018-10-12T19:11:38.823Z,99206.17
2018-10-12T19:14:08.543Z,99207.44
2018-10-12T19:16:37.726Z,99208.66
2018-10-12T19:19:07.765Z,99213.45
2018-10-12T19:21:36.061Z,99196.08
2018-10-12T19:24:05.702Z,99220.36
2018-10-12T19:29:03.771Z,99229.13
2018-10-12T19:31:33.060Z,99219.72
2018-10-12T19:34:02.616Z,99225.53
2018-10-12T19:36:32.615Z,99229.80
2018-10-12T19:39:00.823Z,99232.97
2018-10-12T19:41:30.065Z,99228.31
2018-10-12T19:43:59.718Z,99233.60
2018-10-12T19:46:28.872Z,99226.63
2018-10-12T19:48:58.742Z,99233.85
2018-10-12T19:51:28.609Z,99232.12
2018-10-12T19:53:57.894Z,99176.45
2018-10-12T19:56:27.572Z,99235.67
2018-10-12T19:58:56.833Z,99239.28
2018-10-12T20:01:26.763Z,99231.31
2018-10-12T20:03:55.165Z,99247.31
2018-10-12T20:06:24.853Z,99244.41
2018-10-12T20:08:54.757Z,99246.16
2018-10-12T20:11:23.846Z,99245.41
2018-10-12T20:13:54.870Z,99248.91
2018-10-12T20:16:24.773Z,99252.67
2018-10-12T20:18:55.645Z,99252.94
2018-10-12T20:21:25.563Z,99260.44
2018-10-12T20:23:55.743Z,99259.66
2018-10-12T20:26:25.722Z,99255.42
2018-10-12T20:28:54.922Z,99256.89
2018-10-12T20:31:24.898Z,99267.94
2018-10-12T20:33:54.730Z,99268.27
2018-10-12T20:36:23.965Z,99270.69
2018-10-12T20:38:53.590Z,99248.91
2018-10-12T20:41:21.861Z,99273.92
2018-10-12T20:45:34.804Z,99277.03
2018-10-12T20:48:03.959Z,99271.13
2018-10-12T20:50:33.918Z,99276.77
2018-10-12T20:53:03.686Z,99275.44
2018-10-12T20:55:32.874Z,99276.25
2018-10-12T20:58:02.216Z,99260.95
2018-10-12T21:00:30.973Z,99268.76
2018-10-12T21:04:28.637Z,99263.42
2018-10-12T21:06:58.026Z,99265.34
2018-10-12T21:11:28.987Z,99264.30
2018-10-12T21:14:00.838Z,99257.88
2018-10-12T21:16:30.702Z,99244.39
2018-10-12T21:19:00.033Z,99260.56
2018-10-12T21:21:31.746Z,99254.70
2018-10-12T21:24:26.939Z,99255.21
2018-10-12T21:26:58.798Z,99260.86
2018-10-12T21:29:28.785Z,99256.84
2018-10-12T21:31:57.606Z,99265.39
2018-10-12T21:34:27.160Z,99255.52
2018-10-12T21:36:57.385Z,99264.36
2018-10-12T21:39:27.156Z,99267.30
2018-10-12T21:41:56.741Z,99252.31
2018-10-12T21:44:25.703Z,99267.84
2018-10-12T21:46:54.988Z,99269.19
2018-10-12T21:49:25.809Z,99245.86
2018-10-12T21:51:55.478Z,99231.33
2018-10-12T21:54:24.158Z,99264.63
2018-10-12T21:56:54.767Z,99263.84
2018-10-12T21:59:24.889Z,99243.77
2018-10-12T22:01:53.943Z,99226.05
2018-10-12T22:04:23.795Z,99259.31
2018-10-12T22:06:54.876Z,99263.58
2018-10-12T22:09:24.558Z,99264.44
2018-10-12T22:11:55.561Z,99246.49
2018-10-12T22:14:25.467Z,99247.02
2018-10-12T22:17:38.705Z,99256.41
2018-10-12T22:20:09.218Z,99244.56
2018-10-12T22:22:38.114Z,99253.70
2018-10-12T22:25:07.758Z,99256.89
2018-10-12T22:27:36.839Z,99257.19
2018-10-12T22:30:06.099Z,99253.70
2018-10-12T22:32:35.778Z,99254.25
2018-10-12T22:35:05.882Z,99251.84
2018-10-12T22:37:37.982Z,99232.01
2018-10-12T22:40:08.634Z,99251.58
2018-10-12T22:42:38.932Z,99249.72
2018-10-12T22:45:09.862Z,99241.70
2018-10-12T22:47:41.819Z,99238.73
2018-10-12T22:50:11.811Z,99244.92
2018-10-12T22:54:55.855Z,99237.16
2018-10-12T22:57:25.821Z,99238.23
2018-10-12T22:59:54.387Z,99231.02
2018-10-12T23:02:23.623Z,99232.07
2018-10-12T23:04:54.579Z,99227.24
2018-10-12T23:07:23.677Z,99217.03
2018-10-12T23:09:52.831Z,99234.19
2018-10-12T23:12:24.928Z,99201.51
2018-10-12T23:14:55.503Z,99228.84
2018-10-12T23:17:25.142Z,99221.11
2018-10-12T23:19:56.560Z,99221.92
2018-10-12T23:22:25.397Z,99221.11
2018-10-12T23:26:14.987Z,99215.47
2018-10-12T23:28:44.886Z,99218.95
2018-10-12T23:31:14.657Z,99218.17
2018-10-12T23:34:00.059Z,99214.69
2018-10-12T23:36:29.534Z,99202.36
2018-10-12T23:38:59.318Z,99214.65
2018-10-12T23:41:28.867Z,99216.28
2018-10-12T23:43:59.399Z,99219.77
2018-10-12T23:46:29.790Z,99221.63
2018-10-12T23:49:00.851Z,99219.74
2018-10-12T23:51:31.215Z,99221.63
2018-10-12T23:54:01.199Z,99206.63
2018-10-12T23:56:31.694Z,99211.19
